createdAt,value
2023-10-31T00:00:01.814Z,99829.28
2023-10-31T00:02:28.362Z,99839.06
2023-10-31T00:04:54.854Z,99831.13
2023-10-31T00:07:21.385Z,99828.66
2023-10-31T00:09:47.987Z,99845.00
2023-10-31T00:12:14.499Z,99842.13
2023-10-31T00:14:41.022Z,99835.19
2023-10-31T00:17:07.592Z,99839.69
2023-10-31T00:19:34.108Z,99845.19
2023-10-31T00:22:01.659Z,99846.63
2023-10-31T00:24:28.160Z,99847.84
2023-10-31T00:26:54.649Z,99846.00
2023-10-31T00:29:21.189Z,99847.03
2023-10-31T00:31:47.676Z,99856.81
2023-10-31T00:34:14.206Z,99850.28
2023-10-31T00:36:40.721Z,99849.47
2023-10-31T00:39:07.275Z,99848.25
2023-10-31T00:41:33.815Z,99851.94
2023-10-31T00:44:00.448Z,99839.69
2023-10-31T00:46:27.007Z,99839.69
2023-10-31T00:48:53.509Z,99846.41
2023-10-31T00:51:20.205Z,99850.69
2023-10-31T00:53:47.024Z,99852.72
2023-10-31T00:56:13.541Z,99867.84
2023-10-31T00:58:40.016Z,99867.84
2023-10-31T01:01:06.609Z,99870.47
2023-10-31T01:03:33.208Z,99876.59
2023-10-31T01:05:59.841Z,99874.78
2023-10-31T01:08:26.394Z,99882.50
2023-10-31T01:10:53.047Z,99886.19
2023-10-31T01:13:19.975Z,99880.69
2023-10-31T01:15:46.575Z,99883.94
2023-10-31T01:18:13.229Z,99886.38
2023-10-31T01:20:40.158Z,99886.19
2023-10-31T01:23:06.709Z,99888.63
2023-10-31T01:25:33.287Z,99893.94
2023-10-31T01:27:59.830Z,99902.50
2023-10-31T01:30:26.294Z,99898.81
2023-10-31T01:32:52.960Z,99900.47
2023-10-31T01:35:19.577Z,99907.41
2023-10-31T01:37:46.059Z,99909.63
2023-10-31T01:40:15.569Z,99899.63
2023-10-31T01:42:42.086Z,99907.41
2023-10-31T01:45:09.382Z,99921.69
2023-10-31T01:47:36.027Z,99907.81
2023-10-31T01:50:02.766Z,99910.88
2023-10-31T01:52:30.488Z,99909.44
2023-10-31T01:54:57.661Z,99903.53
2023-10-31T01:57:24.256Z,99913.13
2023-10-31T01:59:50.813Z,99912.28
2023-10-31T02:02:17.696Z,99904.56
2023-10-31T02:04:44.369Z,99909.03
2023-10-31T02:07:11.009Z,99908.41
2023-10-31T02:09:37.509Z,99899.44
2023-10-31T02:12:04.470Z,99903.53
2023-10-31T02:14:30.943Z,99905.97
2023-10-31T02:16:57.513Z,99905.81
2023-10-31T02:19:24.106Z,99905.59
2023-10-31T02:21:50.578Z,99908.03
2023-10-31T02:24:17.152Z,99911.50
2023-10-31T02:26:43.673Z,99911.91
2023-10-31T02:29:10.240Z,99905.97
2023-10-31T02:31:36.873Z,99902.28
2023-10-31T02:34:03.489Z,99911.91
2023-10-31T02:36:30.120Z,99910.09
2023-10-31T02:38:56.711Z,99909.06
2023-10-31T02:41:24.284Z,99914.75
2023-10-31T02:43:51.569Z,99921.69
2023-10-31T02:46:19.036Z,99928.63
2023-10-31T02:48:45.601Z,99935.59
2023-10-31T02:51:12.252Z,99931.09
2023-10-31T02:53:38.762Z,99928.63
2023-10-31T02:56:05.503Z,99926.81
2023-10-31T02:58:32.003Z,99938.44
2023-10-31T03:00:58.494Z,99934.78
2023-10-31T03:03:25.077Z,99940.28
2023-10-31T03:05:51.596Z,99942.94
2023-10-31T03:08:21.678Z,99948.47
2023-10-31T03:10:51.768Z,99942.31
2023-10-31T03:13:21.548Z,99943.34
2023-10-31T03:15:48.673Z,99952.31
2023-10-31T03:18:15.944Z,99955.59
2023-10-31T03:20:45.749Z,99961.50
2023-10-31T03:23:12.372Z,99964.16
2023-10-31T03:25:39.043Z,99972.72
2023-10-31T03:28:08.680Z,99971.09
2023-10-31T03:30:35.153Z,99986.00
2023-10-31T03:33:02.369Z,99988.66
2023-10-31T03:35:28.872Z,99987.63
2023-10-31T03:37:55.401Z,99983.34
2023-10-31T03:40:21.905Z,99988.66
2023-10-31T03:42:48.373Z,99996.59
2023-10-31T03:45:14.883Z,100010.72
2023-10-31T03:47:41.428Z,100014.56
2023-10-31T03:50:09.657Z,100014.56
2023-10-31T03:52:36.133Z,100009.47
2023-10-31T03:55:02.828Z,100020.88
2023-10-31T03:57:29.306Z,100021.09
2023-10-31T03:59:55.778Z,100025.41
2023-10-31T04:02:22.298Z,100025.41
2023-10-31T04:04:48.811Z,100037.22
2023-10-31T04:07:16.098Z,100039.88
2023-10-31T04:09:42.768Z,100037.81
2023-10-31T04:12:09.396Z,100039.25
2023-10-31T04:14:36.011Z,100046.78
2023-10-31T04:17:02.608Z,100054.91
2023-10-31T04:19:29.162Z,100046.34
2023-10-31T04:21:55.731Z,100051.03
2023-10-31T04:24:22.192Z,100058.81
2023-10-31T04:26:48.719Z,100063.28
2023-10-31T04:29:15.268Z,100053.06
2023-10-31T04:31:44.420Z,100057.97
2023-10-31T04:34:11.396Z,100061.66
2023-10-31T04:36:37.922Z,100064.91
2023-10-31T04:39:05.555Z,100062.88
2023-10-31T04:41:32.298Z,100059.63
2023-10-31T04:43:58.899Z,100066.78
2023-10-31T04:46:28.410Z,100064.13
2023-10-31T04:48:54.988Z,100066.34
2023-10-31T04:51:21.653Z,100060.41
2023-10-31T04:53:48.358Z,100064.09
2023-10-31T04:56:16.101Z,100066.94
2023-10-31T04:58:43.662Z,100069.38
2023-10-31T05:01:14.202Z,100068.16
2023-10-31T05:03:40.819Z,100073.28
2023-10-31T05:06:07.564Z,100075.31
2023-10-31T05:08:34.080Z,100077.53
2023-10-31T05:11:00.634Z,100075.28
2023-10-31T05:13:27.206Z,100077.94
2023-10-31T05:15:53.733Z,100089.75
2023-10-31T05:18:20.621Z,100093.44
2023-10-31T05:20:47.091Z,100099.53
2023-10-31T05:23:14.003Z,100095.88
2023-10-31T05:25:40.655Z,100095.66
2023-10-31T05:28:07.154Z,100098.50
2023-10-31T05:30:33.634Z,100098.69
2023-10-31T05:33:00.183Z,100108.91
2023-10-31T05:35:26.865Z,100095.81
2023-10-31T05:37:53.425Z,100111.53
2023-10-31T05:40:20.142Z,100114.59
2023-10-31T05:42:46.648Z,100118.66
2023-10-31T05:45:13.252Z,100122.72
2023-10-31T05:47:40.175Z,100128.41
2023-10-31T05:50:07.613Z,100131.91
2023-10-31T05:52:34.206Z,100135.34
2023-10-31T05:55:00.846Z,100132.91
2023-10-31T05:57:27.389Z,100139.41
2023-10-31T05:59:53.837Z,100142.28
2023-10-31T06:02:20.337Z,100137.78
2023-10-31T06:04:46.997Z,100142.91
2023-10-31T06:07:13.613Z,100138.63
2023-10-31T06:09:40.118Z,100137.78
2023-10-31T06:12:06.769Z,100150.22
2023-10-31T06:14:33.317Z,100136.34
2023-10-31T06:17:01.083Z,100148.38
2023-10-31T06:19:27.591Z,100153.28
2023-10-31T06:21:54.049Z,100157.78
2023-10-31T06:24:20.562Z,100162.25
2023-10-31T06:26:47.045Z,100160.44
2023-10-31T06:29:37.075Z,100167.38
2023-10-31T06:32:00.138Z,100165.75
2023-10-31T06:34:26.705Z,100168.41
2023-10-31T06:36:53.441Z,100172.88
2023-10-31T06:39:20.126Z,100178.16
2023-10-31T06:41:46.748Z,100174.72
2023-10-31T06:44:13.711Z,100174.09
2023-10-31T06:46:40.237Z,100182.22
2023-10-31T06:49:06.719Z,100190.78
2023-10-31T06:51:33.240Z,100189.16
2023-10-31T06:53:59.747Z,100194.28
2023-10-31T06:56:26.222Z,100190.78
2023-10-31T06:58:52.902Z,100195.91
2023-10-31T07:01:20.657Z,100194.47
2023-10-31T07:03:48.549Z,100205.50
2023-10-31T07:06:15.153Z,100198.56
2023-10-31T07:08:41.672Z,100203.88
2023-10-31T07:11:08.241Z,100192.44
2023-10-31T07:13:34.796Z,100207.31
2023-10-31T07:16:01.311Z,100205.31
2023-10-31T07:18:27.830Z,100216.75
2023-10-31T07:20:54.584Z,100217.38
2023-10-31T07:23:21.280Z,100220.63
2023-10-31T07:25:47.841Z,100227.38
2023-10-31T07:28:14.327Z,100224.72
2023-10-31T07:30:40.773Z,100228.63
2023-10-31T07:33:07.524Z,100227.59
2023-10-31T07:35:34.010Z,100236.81
2023-10-31T07:38:00.609Z,100238.06
2023-10-31T07:40:27.141Z,100242.16
2023-10-31T07:42:53.635Z,100241.16
2023-10-31T07:45:20.149Z,100254.19
2023-10-31T07:47:46.667Z,100252.16
2023-10-31T07:50:14.479Z,100247.31
2023-10-31T07:52:41.186Z,100254.88
2023-10-31T07:55:07.883Z,100251.00
2023-10-31T07:57:34.426Z,100261.84
2023-10-31T08:00:00.954Z,100261.31
2023-10-31T08:02:27.567Z,100263.34
2023-10-31T08:04:54.204Z,100262.97
2023-10-31T08:07:20.762Z,100259.09
2023-10-31T08:09:47.474Z,100264.81
2023-10-31T08:12:14.018Z,100262.16
2023-10-31T08:14:40.519Z,100265.44
2023-10-31T08:17:07.122Z,100271.38
2023-10-31T08:19:33.616Z,100267.72
2023-10-31T08:22:00.110Z,100263.03
2023-10-31T08:24:26.576Z,100262.22
2023-10-31T08:26:53.118Z,100268.97
2023-10-31T08:29:19.702Z,100267.53
2023-10-31T08:31:46.215Z,100269.81
2023-10-31T08:34:13.664Z,100269.22
2023-10-31T08:36:40.269Z,100261.88
2023-10-31T08:39:07.367Z,100272.50
2023-10-31T08:41:34.635Z,100280.69
2023-10-31T08:44:04.434Z,100285.66
2023-10-31T08:46:31.041Z,100274.22
2023-10-31T08:48:57.525Z,100286.50
2023-10-31T08:51:24.453Z,100285.72
2023-10-31T08:53:51.012Z,100291.88
2023-10-31T08:56:17.524Z,100293.72
2023-10-31T08:58:44.007Z,100294.13
2023-10-31T09:01:10.942Z,100299.88
2023-10-31T09:03:37.517Z,100308.44
2023-10-31T09:06:04.612Z,100315.00
2023-10-31T09:08:31.167Z,100317.25
2023-10-31T09:10:57.748Z,100317.88
2023-10-31T09:13:24.244Z,100318.69
2023-10-31T09:15:51.166Z,100324.84
2023-10-31T09:18:17.899Z,100330.34
2023-10-31T09:20:44.433Z,100334.47
2023-10-31T09:23:11.022Z,100332.63
2023-10-31T09:25:37.693Z,100333.63
2023-10-31T09:28:04.333Z,100343.44
2023-10-31T09:30:30.852Z,100335.25
2023-10-31T09:32:57.493Z,100348.34
2023-10-31T09:35:24.202Z,100336.44
2023-10-31T09:37:50.909Z,100355.28
2023-10-31T09:40:17.508Z,100339.13
2023-10-31T09:42:46.023Z,100341.38
2023-10-31T09:45:13.122Z,100356.28
2023-10-31T09:47:40.004Z,100350.91
2023-10-31T09:50:08.314Z,100356.06
2023-10-31T09:52:35.036Z,100361.56
2023-10-31T09:55:02.831Z,100358.44
2023-10-31T09:57:29.976Z,100366.63
2023-10-31T09:59:56.706Z,100367.28
2023-10-31T10:02:23.444Z,100372.38
2023-10-31T10:04:50.515Z,100381.38
2023-10-31T10:07:17.957Z,100376.44
2023-10-31T10:09:45.479Z,100378.22
2023-10-31T10:12:18.940Z,100381.66
2023-10-31T10:14:46.948Z,100383.63
2023-10-31T10:17:23.036Z,100385.09
2023-10-31T10:20:05.396Z,100382.34
2023-10-31T10:22:31.944Z,100382.53
2023-10-31T10:24:58.746Z,100396.56
2023-10-31T10:27:25.453Z,100395.25
2023-10-31T10:29:55.300Z,100397.84
2023-10-31T10:32:21.881Z,100395.25
2023-10-31T10:34:48.426Z,100398.91
2023-10-31T10:37:14.950Z,100393.34
2023-10-31T10:39:42.076Z,100389.47
2023-10-31T10:42:14.629Z,100397.09
2023-10-31T10:44:45.782Z,100397.31
2023-10-31T10:47:14.005Z,100390.78
2023-10-31T10:49:43.277Z,100401.72
2023-10-31T10:52:28.738Z,100411.38
2023-10-31T10:55:08.183Z,100407.47
2023-10-31T10:57:52.867Z,100406.38
2023-10-31T11:00:21.117Z,100408.03
2023-10-31T11:02:49.041Z,100403.00
2023-10-31T11:05:16.859Z,100405.88
2023-10-31T11:07:44.220Z,100404.72
2023-10-31T11:10:11.439Z,100400.81
2023-10-31T11:12:39.941Z,100405.94
2023-10-31T11:15:08.264Z,100404.72
2023-10-31T11:17:38.336Z,100409.47
2023-10-31T11:20:06.256Z,100403.38
2023-10-31T11:22:43.671Z,100417.75
2023-10-31T11:25:16.734Z,100420.31
2023-10-31T11:27:50.783Z,100420.13
2023-10-31T11:30:35.607Z,100421.78
2023-10-31T11:33:03.276Z,100421.53
2023-10-31T11:35:31.790Z,100430.47
2023-10-31T11:38:05.981Z,100417.47
2023-10-31T11:40:33.064Z,100419.63
2023-10-31T11:43:05.761Z,100432.00
2023-10-31T11:45:35.540Z,100425.19
2023-10-31T11:48:02.072Z,100422.63
2023-10-31T11:50:28.750Z,100427.97
2023-10-31T11:53:06.515Z,100432.28
2023-10-31T11:55:36.553Z,100431.16
2023-10-31T11:58:16.271Z,100426.44
2023-10-31T12:00:42.914Z,100440.22
2023-10-31T12:03:09.598Z,100455.25
2023-10-31T12:05:36.255Z,100448.34
2023-10-31T12:08:03.176Z,100443.50
2023-10-31T12:10:33.897Z,100452.56
2023-10-31T12:13:00.433Z,100449.94
2023-10-31T12:15:27.302Z,100443.81
2023-10-31T12:17:59.092Z,100447.28
2023-10-31T12:20:26.189Z,100454.28
2023-10-31T12:23:05.323Z,100454.06
2023-10-31T12:25:34.013Z,100467.19
2023-10-31T12:28:00.561Z,100463.75
2023-10-31T12:30:27.114Z,100463.78
2023-10-31T12:32:58.291Z,100473.22
2023-10-31T12:35:27.202Z,100474.66
2023-10-31T12:37:54.564Z,100476.91
2023-10-31T12:40:23.090Z,100482.66
2023-10-31T12:42:51.092Z,100484.69
2023-10-31T12:45:19.834Z,100482.44
2023-10-31T12:48:00.792Z,100485.91
2023-10-31T12:50:27.375Z,100495.72
2023-10-31T12:52:55.753Z,100490.59
2023-10-31T12:55:24.514Z,100482.56
2023-10-31T12:57:52.614Z,100488.09
2023-10-31T13:00:25.547Z,100490.78
2023-10-31T13:03:07.066Z,100497.28
2023-10-31T13:05:41.327Z,100497.50
2023-10-31T13:08:17.763Z,100502.47
2023-10-31T13:10:44.822Z,100497.56
2023-10-31T13:13:13.300Z,100501.03
2023-10-31T13:15:40.300Z,100500.03
2023-10-31T13:18:06.903Z,100497.56
2023-10-31T13:20:33.550Z,100496.09
2023-10-31T13:23:03.600Z,100496.53
2023-10-31T13:25:32.428Z,100488.34
2023-10-31T13:27:59.022Z,100486.69
2023-10-31T13:30:26.531Z,100501.06
2023-10-31T13:32:54.379Z,100500.84
2023-10-31T13:37:47.819Z,100498.38
2023-10-31T13:40:14.881Z,100508.41
2023-10-31T13:42:41.504Z,100508.63
2023-10-31T13:45:08.503Z,100504.72
2023-10-31T13:47:35.159Z,100512.09
2023-10-31T13:50:02.105Z,100508.41
2023-10-31T13:52:28.682Z,100515.19
2023-10-31T13:54:55.244Z,100509.25
2023-10-31T13:57:22.908Z,100514.81
2023-10-31T13:59:51.721Z,100521.16
2023-10-31T14:02:18.633Z,100528.16
2023-10-31T14:04:45.673Z,100522.63
2023-10-31T14:07:21.519Z,100526.53
2023-10-31T14:09:49.174Z,100524.88
2023-10-31T14:12:15.738Z,100526.09
2023-10-31T14:14:42.259Z,100529.19
2023-10-31T14:17:08.740Z,100533.06
2023-10-31T14:19:35.245Z,100533.06
2023-10-31T14:22:02.195Z,100544.56
2023-10-31T14:24:28.826Z,100548.63
2023-10-31T14:26:55.312Z,100539.41
2023-10-31T14:29:22.221Z,100535.53
2023-10-31T14:31:48.879Z,100541.47
2023-10-31T14:34:15.431Z,100538.22
2023-10-31T14:36:42.713Z,100547.41
2023-10-31T14:39:11.189Z,100542.69
2023-10-31T14:41:37.896Z,100543.31
2023-10-31T14:44:04.591Z,100548.44
2023-10-31T14:46:31.415Z,100556.66
2023-10-31T14:48:58.137Z,100558.88
2023-10-31T14:51:24.776Z,100556.03
2023-10-31T14:53:51.325Z,100553.16
2023-10-31T14:56:18.104Z,100565.84
2023-10-31T14:58:44.688Z,100562.34
2023-10-31T15:01:11.370Z,100567.88
2023-10-31T15:03:38.194Z,100564.38
2023-10-31T15:06:09.122Z,100565.75
2023-10-31T15:08:35.730Z,100567.97
2023-10-31T15:11:02.636Z,100573.06
2023-10-31T15:13:29.334Z,100578.00
2023-10-31T15:15:55.886Z,100579.19
2023-10-31T15:18:23.162Z,100574.66
2023-10-31T15:20:49.982Z,100571.34
2023-10-31T15:23:16.525Z,100579.34
2023-10-31T15:25:43.061Z,100577.06
2023-10-31T15:28:09.647Z,100572.19
2023-10-31T15:30:36.242Z,100579.53
2023-10-31T15:33:02.846Z,100584.81
2023-10-31T15:35:29.461Z,100578.44
2023-10-31T15:37:55.989Z,100589.88
2023-10-31T15:40:22.523Z,100597.63
2023-10-31T15:42:49.050Z,100605.59
2023-10-31T15:45:15.570Z,100598.81
2023-10-31T15:47:42.210Z,100598.63
2023-10-31T15:50:09.177Z,100602.72
2023-10-31T15:52:35.709Z,100608.03
2023-10-31T15:55:02.804Z,100607.88
2023-10-31T15:57:29.429Z,100606.84
2023-10-31T15:59:55.923Z,100612.97
2023-10-31T16:02:22.469Z,100606.44
2023-10-31T16:04:49.004Z,100606.44
2023-10-31T16:07:15.530Z,100606.84
2023-10-31T16:09:42.314Z,100609.50
2023-10-31T16:12:10.190Z,100611.31
2023-10-31T16:14:36.962Z,100613.34
2023-10-31T16:17:06.592Z,100602.88
2023-10-31T16:19:34.547Z,100604.50
2023-10-31T16:22:02.921Z,100613.03
2023-10-31T16:24:29.556Z,100606.72
2023-10-31T16:26:56.111Z,100614.50
2023-10-31T16:29:22.701Z,100616.53
2023-10-31T16:31:49.391Z,100618.19
2023-10-31T16:34:16.092Z,100609.38
2023-10-31T16:36:42.610Z,100611.84
2023-10-31T16:39:09.186Z,100625.94
2023-10-31T16:41:35.894Z,100620.84
2023-10-31T16:44:02.417Z,100628.81
2023-10-31T16:46:29.069Z,100628.81
2023-10-31T16:48:55.627Z,100634.13
2023-10-31T16:51:23.694Z,100646.78
2023-10-31T16:53:50.336Z,100644.31
2023-10-31T16:56:17.834Z,100643.50
2023-10-31T16:58:46.706Z,100653.13
2023-10-31T17:01:14.368Z,100652.72
2023-10-31T17:03:41.047Z,100654.56
2023-10-31T17:06:08.297Z,100654.56
2023-10-31T17:08:34.976Z,100653.91
2023-10-31T17:11:01.879Z,100652.72
2023-10-31T17:13:28.496Z,100660.06
2023-10-31T17:15:55.029Z,100658.22
2023-10-31T17:18:21.635Z,100662.09
2023-10-31T17:20:49.007Z,100664.31
2023-10-31T17:23:15.797Z,100668.81
2023-10-31T17:25:43.281Z,100676.56
2023-10-31T17:28:10.029Z,100672.44
2023-10-31T17:30:36.628Z,100674.69
2023-10-31T17:33:03.282Z,100673.69
2023-10-31T17:35:30.085Z,100686.78
2023-10-31T17:37:56.589Z,100680.47
2023-10-31T17:40:23.770Z,100682.28
2023-10-31T17:42:50.491Z,100681.47
2023-10-31T17:45:18.921Z,100680.66
2023-10-31T17:47:45.522Z,100676.97
2023-10-31T17:50:12.131Z,100676.16
2023-10-31T17:52:38.877Z,100675.16
2023-10-31T17:55:05.723Z,100690.25
2023-10-31T17:57:32.247Z,100689.25
2023-10-31T17:59:58.767Z,100684.78
2023-10-31T18:02:25.319Z,100684.94
2023-10-31T18:04:51.821Z,100674.53
2023-10-31T18:07:20.601Z,100682.66
2023-10-31T18:09:49.935Z,100685.53
2023-10-31T18:12:18.206Z,100676.94
2023-10-31T18:14:44.746Z,100685.09
2023-10-31T18:17:11.200Z,100686.56
2023-10-31T18:19:37.904Z,100682.25
2023-10-31T18:22:04.440Z,100690.00
2023-10-31T18:24:30.973Z,100683.06
2023-10-31T18:26:57.503Z,100686.56
2023-10-31T18:29:23.992Z,100683.66
2023-10-31T18:31:50.507Z,100690.59
2023-10-31T18:34:17.087Z,100681.00
2023-10-31T18:36:43.577Z,100675.69
2023-10-31T18:39:10.803Z,100668.25
2023-10-31T18:41:40.248Z,100673.78
2023-10-31T18:44:22.001Z,100670.50
2023-10-31T18:46:53.443Z,100663.72
2023-10-31T18:49:19.947Z,100665.75
2023-10-31T18:51:46.459Z,100653.47
2023-10-31T18:54:13.103Z,100661.81
2023-10-31T18:56:39.638Z,100661.66
2023-10-31T18:59:06.979Z,100653.22
2023-10-31T19:01:33.724Z,100655.72
2023-10-31T19:04:00.589Z,100664.47
2023-10-31T19:06:27.125Z,100661.66
2023-10-31T19:08:53.622Z,100662.44
2023-10-31T19:11:20.187Z,100650.00
2023-10-31T19:13:46.988Z,100650.63
2023-10-31T19:16:13.862Z,100648.63
2023-10-31T19:18:40.413Z,100648.63
2023-10-31T19:21:07.308Z,100652.28
2023-10-31T19:23:34.676Z,100642.03
2023-10-31T19:26:01.414Z,100635.09
2023-10-31T19:28:28.184Z,100633.22
2023-10-31T19:30:54.740Z,100620.78
2023-10-31T19:33:21.294Z,100617.28
2023-10-31T19:35:47.891Z,100628.56
2023-10-31T19:38:14.456Z,100628.56
2023-10-31T19:40:41.075Z,100628.38
2023-10-31T19:43:07.678Z,100629.81
2023-10-31T19:45:34.168Z,100631.28
2023-10-31T19:48:00.855Z,100621.66
2023-10-31T19:50:27.453Z,100626.59
2023-10-31T19:52:54.003Z,100620.06
2023-10-31T19:55:21.524Z,100615.56
2023-10-31T19:57:49.471Z,100619.25
2023-10-31T20:00:16.541Z,100614.56
2023-10-31T20:02:45.269Z,100621.31
2023-10-31T20:05:13.532Z,100617.84
2023-10-31T20:07:40.361Z,100611.50
2023-10-31T20:10:07.419Z,100604.19
2023-10-31T20:12:33.924Z,100603.34
2023-10-31T20:15:02.299Z,100592.72
2023-10-31T20:17:29.434Z,100593.16
2023-10-31T20:19:56.113Z,100580.50
2023-10-31T20:22:22.747Z,100575.19
2023-10-31T20:24:49.291Z,100569.03
2023-10-31T20:27:15.913Z,100578.84
2023-10-31T20:29:43.930Z,100573.53
2023-10-31T20:32:10.601Z,100570.03
2023-10-31T20:34:37.130Z,100559.41
2023-10-31T20:37:03.715Z,100563.91
2023-10-31T20:39:30.242Z,100574.94
2023-10-31T20:41:56.753Z,100584.72
2023-10-31T20:44:23.297Z,100601.50
2023-10-31T20:46:50.421Z,100625.44
2023-10-31T20:49:17.096Z,100613.34
2023-10-31T20:51:45.070Z,100606.75
2023-10-31T20:54:12.364Z,100615.56
2023-10-31T20:56:38.944Z,100638.84
2023-10-31T20:59:05.507Z,100626.59
2023-10-31T21:01:33.826Z,100648.84
2023-10-31T21:04:01.728Z,100629.63
2023-10-31T21:06:29.712Z,100633.94
2023-10-31T21:08:56.217Z,100645.19
2023-10-31T21:11:23.177Z,100647.84
2023-10-31T21:13:51.015Z,100634.94
2023-10-31T21:16:17.942Z,100648.03
2023-10-31T21:18:44.516Z,100658.22
2023-10-31T21:21:11.530Z,100675.81
2023-10-31T21:23:38.092Z,100674.16
2023-10-31T21:26:05.171Z,100642.03
2023-10-31T21:28:33.097Z,100643.59
2023-10-31T21:30:59.912Z,100632.94
2023-10-31T21:33:27.146Z,100643.94
2023-10-31T21:35:54.573Z,100636.16
2023-10-31T21:38:21.133Z,100626.53
2023-10-31T21:40:47.732Z,100627.19
2023-10-31T21:43:15.966Z,100623.13
2023-10-31T21:45:42.555Z,100627.63
2023-10-31T21:48:11.365Z,100611.69
2023-10-31T21:50:38.022Z,100621.47
2023-10-31T21:53:04.874Z,100627.63
2023-10-31T21:55:31.404Z,100629.19
2023-10-31T21:57:58.092Z,100635.97
2023-10-31T22:00:24.548Z,100638.63
2023-10-31T22:02:51.240Z,100639.44
2023-10-31T22:05:17.936Z,100649.88
2023-10-31T22:07:44.595Z,100619.59
2023-10-31T22:10:11.197Z,100627.38
2023-10-31T22:12:37.758Z,100628.41
2023-10-31T22:15:05.433Z,100630.22
2023-10-31T22:17:32.403Z,100641.03
2023-10-31T22:20:01.534Z,100643.88
2023-10-31T22:22:28.150Z,100646.34
2023-10-31T22:24:54.658Z,100670.88
2023-10-31T22:27:21.165Z,100662.72
2023-10-31T22:29:47.671Z,100645.59
2023-10-31T22:32:14.591Z,100648.03
2023-10-31T22:34:41.103Z,100657.88
2023-10-31T22:37:07.592Z,100641.53
2023-10-31T22:39:34.120Z,100645.47
2023-10-31T22:42:00.628Z,100643.06
2023-10-31T22:44:27.148Z,100647.97
2023-10-31T22:46:53.671Z,100640.00
2023-10-31T22:49:20.244Z,100644.31
2023-10-31T22:51:46.720Z,100651.69
2023-10-31T22:54:13.244Z,100667.47
2023-10-31T22:56:39.786Z,100662.56
2023-10-31T22:59:06.435Z,100662.38
2023-10-31T23:01:32.941Z,100655.03
2023-10-31T23:03:59.464Z,100651.75
2023-10-31T23:06:28.889Z,100639.50
2023-10-31T23:08:56.336Z,100634.81
2023-10-31T23:11:24.832Z,100636.44
2023-10-31T23:13:51.603Z,100641.31
2023-10-31T23:16:18.216Z,100622.53
2023-10-31T23:18:44.784Z,100632.78
2023-10-31T23:21:11.339Z,100637.69
2023-10-31T23:23:37.859Z,100635.69
2023-10-31T23:26:04.670Z,100634.44
2023-10-31T23:28:31.204Z,100620.16
2023-10-31T23:30:58.857Z,100618.56
2023-10-31T23:33:27.272Z,100618.56
2023-10-31T23:35:54.764Z,100615.53
2023-10-31T23:38:21.331Z,100622.88
2023-10-31T23:40:47.851Z,100611.59
2023-10-31T23:43:14.593Z,100616.09
2023-10-31T23:45:41.722Z,100602.56
2023-10-31T23:48:08.510Z,100600.13
2023-10-31T23:50:35.381Z,100597.44
2023-10-31T23:53:03.334Z,100590.69
2023-10-31T23:55:29.881Z,100591.69
2023-10-31T23:57:56.624Z,100590.44
